sensor_id;sensor_type;location;lat;lon;timestamp;pressure;altitude;pressure_sealevel;temperature;humidity
82249;BME280;71851;49.092;18.918;2023-07-31T00:02:20;96927.75;;;15.50;77.82
82249;BME280;71851;49.092;18.918;2023-07-31T00:05:20;96933.78;;;15.57;77.69
82249;BME280;71851;49.092;18.918;2023-07-31T00:08:21;96924.00;;;15.57;77.27
82249;BME280;71851;49.092;18.918;2023-07-31T00:11:22;96938.84;;;15.58;77.24
82249;BME280;71851;49.092;18.918;2023-07-31T00:14:22;96930.56;;;15.55;77.80
82249;BME280;71851;49.092;18.918;2023-07-31T00:17:23;96933.34;;;15.60;77.24
82249;BME280;71851;49.092;18.918;2023-07-31T00:20:23;96928.88;;;15.60;78.30
82249;BME280;71851;49.092;18.918;2023-07-31T00:23:24;96941.50;;;15.58;77.93
82249;BME280;71851;49.092;18.918;2023-07-31T00:26:24;96940.97;;;15.68;77.49
82249;BME280;71851;49.092;18.918;2023-07-31T00:29:24;96935.63;;;15.74;77.27
82249;BME280;71851;49.092;18.918;2023-07-31T00:32:25;96931.81;;;15.70;77.39
82249;BME280;71851;49.092;18.918;2023-07-31T00:35:25;96931.16;;;15.75;77.39
82249;BME280;71851;49.092;18.918;2023-07-31T00:38:26;96931.75;;;15.77;77.30
82249;BME280;71851;49.092;18.918;2023-07-31T00:41:26;96926.44;;;15.77;77.43
82249;BME280;71851;49.092;18.918;2023-07-31T00:44:27;96920.94;;;15.78;77.15
82249;BME280;71851;49.092;18.918;2023-07-31T00:47:27;96911.75;;;15.81;77.93
82249;BME280;71851;49.092;18.918;2023-07-31T00:50:28;96926.44;;;15.77;77.23
82249;BME280;71851;49.092;18.918;2023-07-31T00:53:29;96941.34;;;15.71;77.34
82249;BME280;71851;49.092;18.918;2023-07-31T00:56:30;96939.44;;;15.78;76.96
82249;BME280;71851;49.092;18.918;2023-07-31T00:59:31;96939.09;;;15.75;77.28
82249;BME280;71851;49.092;18.918;2023-07-31T01:02:31;96937.91;;;15.71;77.51
82249;BME280;71851;49.092;18.918;2023-07-31T01:08:54;96929.53;;;15.74;77.95
82249;BME280;71851;49.092;18.918;2023-07-31T01:12:02;96925.16;;;15.79;77.30
82249;BME280;71851;49.092;18.918;2023-07-31T01:15:08;96926.22;;;15.78;77.73
82249;BME280;71851;49.092;18.918;2023-07-31T01:18:11;96928.56;;;15.86;77.16
82249;BME280;71851;49.092;18.918;2023-07-31T01:21:23;96925.34;;;15.84;77.54
82249;BME280;71851;49.092;18.918;2023-07-31T01:28:10;96928.50;;;15.75;77.97
82249;BME280;71851;49.092;18.918;2023-07-31T01:31:16;96937.22;;;15.75;78.37
82249;BME280;71851;49.092;18.918;2023-07-31T01:34:19;96928.28;;;15.76;77.75
82249;BME280;71851;49.092;18.918;2023-07-31T01:37:20;96922.81;;;15.71;77.44
82249;BME280;71851;49.092;18.918;2023-07-31T01:40:21;96932.75;;;15.58;78.16
82249;BME280;71851;49.092;18.918;2023-07-31T01:43:21;96937.69;;;15.54;78.02
82249;BME280;71851;49.092;18.918;2023-07-31T01:46:22;96941.56;;;15.52;78.04
82249;BME280;71851;49.092;18.918;2023-07-31T01:49:23;96935.78;;;15.43;78.37
82249;BME280;71851;49.092;18.918;2023-07-31T01:52:24;96931.53;;;15.35;79.21
82249;BME280;71851;49.092;18.918;2023-07-31T01:55:24;96932.03;;;15.26;79.29
82249;BME280;71851;49.092;18.918;2023-07-31T01:58:25;96937.09;;;15.27;79.52
82249;BME280;71851;49.092;18.918;2023-07-31T02:01:25;96934.63;;;15.32;79.03
82249;BME280;71851;49.092;18.918;2023-07-31T02:04:26;96943.22;;;15.28;79.14
82249;BME280;71851;49.092;18.918;2023-07-31T02:07:26;96940.19;;;15.24;78.90
82249;BME280;71851;49.092;18.918;2023-07-31T02:10:27;96939.44;;;15.17;79.38
82249;BME280;71851;49.092;18.918;2023-07-31T02:13:27;96935.84;;;15.12;79.38
82249;BME280;71851;49.092;18.918;2023-07-31T02:16:28;96941.34;;;15.10;79.47
82249;BME280;71851;49.092;18.918;2023-07-31T02:19:28;96941.75;;;15.07;79.50
82249;BME280;71851;49.092;18.918;2023-07-31T02:22:29;96951.09;;;15.10;79.24
82249;BME280;71851;49.092;18.918;2023-07-31T02:25:30;96942.03;;;15.24;78.13
82249;BME280;71851;49.092;18.918;2023-07-31T02:28:31;96946.72;;;15.22;78.16
82249;BME280;71851;49.092;18.918;2023-07-31T02:31:31;96941.00;;;15.25;78.36
82249;BME280;71851;49.092;18.918;2023-07-31T02:34:33;96956.47;;;15.21;78.90
82249;BME280;71851;49.092;18.918;2023-07-31T02:37:33;96950.41;;;15.21;78.96
82249;BME280;71851;49.092;18.918;2023-07-31T02:40:34;96942.09;;;15.17;79.63
82249;BME280;71851;49.092;18.918;2023-07-31T02:43:34;96938.56;;;15.23;79.52
82249;BME280;71851;49.092;18.918;2023-07-31T02:46:35;96943.06;;;15.23;79.27
82249;BME280;71851;49.092;18.918;2023-07-31T02:49:35;96944.91;;;15.22;78.89
82249;BME280;71851;49.092;18.918;2023-07-31T02:52:36;96945.53;;;15.18;79.41
82249;BME280;71851;49.092;18.918;2023-07-31T02:55:37;96950.81;;;15.18;79.38
82249;BME280;71851;49.092;18.918;2023-07-31T02:58:39;96949.41;;;15.15;79.44
82249;BME280;71851;49.092;18.918;2023-07-31T03:01:39;96949.38;;;15.22;79.46
82249;BME280;71851;49.092;18.918;2023-07-31T03:04:40;96952.97;;;15.27;79.18
82249;BME280;71851;49.092;18.918;2023-07-31T03:07:40;96952.69;;;15.35;78.69
82249;BME280;71851;49.092;18.918;2023-07-31T03:10:40;96939.22;;;15.44;78.54
82249;BME280;71851;49.092;18.918;2023-07-31T03:13:41;96937.16;;;15.46;77.96
82249;BME280;71851;49.092;18.918;2023-07-31T03:16:41;96950.16;;;15.47;77.70
82249;BME280;71851;49.092;18.918;2023-07-31T03:19:42;96968.53;;;15.42;78.41
82249;BME280;71851;49.092;18.918;2023-07-31T03:22:42;96969.34;;;15.43;78.26
82249;BME280;71851;49.092;18.918;2023-07-31T03:25:55;96955.13;;;15.37;78.55
82249;BME280;71851;49.092;18.918;2023-07-31T03:28:56;96959.97;;;15.40;78.76
82249;BME280;71851;49.092;18.918;2023-07-31T03:31:57;96963.81;;;15.44;78.56
82249;BME280;71851;49.092;18.918;2023-07-31T03:34:58;96962.38;;;15.42;79.09
82249;BME280;71851;49.092;18.918;2023-07-31T03:37:59;96972.34;;;15.46;78.06
82249;BME280;71851;49.092;18.918;2023-07-31T03:40:59;96961.78;;;15.46;78.45
82249;BME280;71851;49.092;18.918;2023-07-31T03:44:00;96959.19;;;15.58;78.31
82249;BME280;71851;49.092;18.918;2023-07-31T03:47:00;96962.59;;;15.65;78.04
82249;BME280;71851;49.092;18.918;2023-07-31T03:50:01;96969.22;;;15.74;77.57
82249;BME280;71851;49.092;18.918;2023-07-31T03:53:02;96966.63;;;15.67;78.38
82249;BME280;71851;49.092;18.918;2023-07-31T03:56:02;96963.09;;;15.73;78.27
82249;BME280;71851;49.092;18.918;2023-07-31T03:59:02;96958.91;;;15.84;77.72
82249;BME280;71851;49.092;18.918;2023-07-31T04:02:03;96952.66;;;15.96;77.50
82249;BME280;71851;49.092;18.918;2023-07-31T04:05:04;96956.59;;;16.05;77.23
82249;BME280;71851;49.092;18.918;2023-07-31T04:08:04;96951.00;;;16.13;76.85
82249;BME280;71851;49.092;18.918;2023-07-31T04:11:05;96952.75;;;16.19;77.33
82249;BME280;71851;49.092;18.918;2023-07-31T04:14:05;96949.38;;;16.31;76.48
82249;BME280;71851;49.092;18.918;2023-07-31T04:17:06;96952.34;;;16.23;76.51
82249;BME280;71851;49.092;18.918;2023-07-31T04:20:06;96946.72;;;16.31;76.90
82249;BME280;71851;49.092;18.918;2023-07-31T04:23:07;96942.00;;;16.33;76.82
82249;BME280;71851;49.092;18.918;2023-07-31T04:26:07;96946.81;;;16.24;77.41
82249;BME280;71851;49.092;18.918;2023-07-31T04:29:08;96947.25;;;16.21;77.40
82249;BME280;71851;49.092;18.918;2023-07-31T04:32:08;96949.44;;;16.24;77.05
82249;BME280;71851;49.092;18.918;2023-07-31T04:35:09;96935.84;;;16.21;76.87
82249;BME280;71851;49.092;18.918;2023-07-31T04:38:09;96935.47;;;16.35;76.63
82249;BME280;71851;49.092;18.918;2023-07-31T04:41:10;96935.97;;;16.26;76.38
82249;BME280;71851;49.092;18.918;2023-07-31T04:44:10;96939.41;;;16.14;76.70
82249;BME280;71851;49.092;18.918;2023-07-31T04:47:11;96936.56;;;16.28;76.59
82249;BME280;71851;49.092;18.918;2023-07-31T04:50:11;96924.47;;;16.50;76.17
82249;BME280;71851;49.092;18.918;2023-07-31T04:53:12;96926.84;;;16.81;74.91
82249;BME280;71851;49.092;18.918;2023-07-31T04:56:13;96920.97;;;17.02;74.54
82249;BME280;71851;49.092;18.918;2023-07-31T04:59:14;96923.88;;;17.35;72.76
82249;BME280;71851;49.092;18.918;2023-07-31T05:02:14;96922.38;;;17.62;72.51
82249;BME280;71851;49.092;18.918;2023-07-31T05:05:15;96916.56;;;17.77;71.72
82249;BME280;71851;49.092;18.918;2023-07-31T05:08:16;96919.88;;;17.96;71.52
82249;BME280;71851;49.092;18.918;2023-07-31T05:11:17;96921.53;;;18.13;70.59
82249;BME280;71851;49.092;18.918;2023-07-31T05:14:18;96929.34;;;18.20;70.23
82249;BME280;71851;49.092;18.918;2023-07-31T05:17:18;96928.69;;;18.41;69.53
82249;BME280;71851;49.092;18.918;2023-07-31T05:20:19;96912.81;;;18.74;68.32
82249;BME280;71851;49.092;18.918;2023-07-31T05:23:19;96906.78;;;18.95;67.63
82249;BME280;71851;49.092;18.918;2023-07-31T05:26:19;96906.03;;;19.16;67.25
82249;BME280;71851;49.092;18.918;2023-07-31T05:29:20;96899.66;;;19.34;66.37
82249;BME280;71851;49.092;18.918;2023-07-31T05:32:20;96906.03;;;19.49;65.50
82249;BME280;71851;49.092;18.918;2023-07-31T05:35:21;96906.50;;;19.68;63.47
82249;BME280;71851;49.092;18.918;2023-07-31T05:38:21;96900.09;;;19.86;62.08
82249;BME280;71851;49.092;18.918;2023-07-31T05:41:22;96904.06;;;19.83;61.97
82249;BME280;71851;49.092;18.918;2023-07-31T05:44:22;96909.38;;;19.83;62.07
82249;BME280;71851;49.092;18.918;2023-07-31T05:47:22;96920.94;;;19.72;62.23
82249;BME280;71851;49.092;18.918;2023-07-31T05:50:23;96918.47;;;19.66;62.13
82249;BME280;71851;49.092;18.918;2023-07-31T05:53:23;96916.94;;;19.70;63.08
82249;BME280;71851;49.092;18.918;2023-07-31T05:56:24;96921.38;;;19.64;63.63
82249;BME280;71851;49.092;18.918;2023-07-31T05:59:24;96922.88;;;19.55;62.31
82249;BME280;71851;49.092;18.918;2023-07-31T06:02:25;96920.94;;;19.72;61.98
82249;BME280;71851;49.092;18.918;2023-07-31T06:05:25;96930.69;;;19.83;61.06
82249;BME280;71851;49.092;18.918;2023-07-31T06:08:26;96936.28;;;20.25;60.59
82249;BME280;71851;49.092;18.918;2023-07-31T06:11:27;96933.06;;;20.50;60.21
82249;BME280;71851;49.092;18.918;2023-07-31T06:14:27;96947.31;;;20.60;59.37
82249;BME280;71851;49.092;18.918;2023-07-31T06:17:28;96950.22;;;20.59;58.66
82249;BME280;71851;49.092;18.918;2023-07-31T06:20:29;96943.69;;;20.45;58.76
82249;BME280;71851;49.092;18.918;2023-07-31T06:23:29;96946.59;;;20.43;59.11
82249;BME280;71851;49.092;18.918;2023-07-31T06:26:30;96947.34;;;20.39;59.39
82249;BME280;71851;49.092;18.918;2023-07-31T06:29:30;96948.06;;;20.56;60.21
82249;BME280;71851;49.092;18.918;2023-07-31T06:32:30;96953.44;;;20.61;59.10
82249;BME280;71851;49.092;18.918;2023-07-31T06:35:31;96950.78;;;20.61;58.71
82249;BME280;71851;49.092;18.918;2023-07-31T06:38:31;96952.22;;;20.47;58.26
82249;BME280;71851;49.092;18.918;2023-07-31T06:41:32;96944.28;;;20.52;58.67
82249;BME280;71851;49.092;18.918;2023-07-31T06:44:36;96954.00;;;20.63;57.68
82249;BME280;71851;49.092;18.918;2023-07-31T06:47:36;96950.66;;;20.51;57.36
82249;BME280;71851;49.092;18.918;2023-07-31T06:50:37;96950.50;;;20.62;56.20
82249;BME280;71851;49.092;18.918;2023-07-31T06:53:37;96957.56;;;20.47;56.14
82249;BME280;71851;49.092;18.918;2023-07-31T06:56:38;96961.34;;;20.51;55.31
82249;BME280;71851;49.092;18.918;2023-07-31T06:59:38;96965.78;;;20.40;55.45
82249;BME280;71851;49.092;18.918;2023-07-31T07:02:38;96973.25;;;20.43;57.83
82249;BME280;71851;49.092;18.918;2023-07-31T07:05:40;96976.00;;;20.48;56.00
82249;BME280;71851;49.092;18.918;2023-07-31T07:08:40;96987.00;;;20.57;56.11
82249;BME280;71851;49.092;18.918;2023-07-31T07:11:40;96982.38;;;20.47;55.37
82249;BME280;71851;49.092;18.918;2023-07-31T07:14:41;96993.47;;;20.39;54.90
82249;BME280;71851;49.092;18.918;2023-07-31T07:17:42;96980.44;;;20.43;55.04
82249;BME280;71851;49.092;18.918;2023-07-31T07:20:50;96984.72;;;20.44;55.12
82249;BME280;71851;49.092;18.918;2023-07-31T07:23:50;96985.28;;;20.46;53.99
82249;BME280;71851;49.092;18.918;2023-07-31T07:26:51;96987.50;;;20.54;55.08
82249;BME280;71851;49.092;18.918;2023-07-31T07:29:51;96995.09;;;20.40;55.30
82249;BME280;71851;49.092;18.918;2023-07-31T07:32:55;96998.88;;;20.22;54.85
82249;BME280;71851;49.092;18.918;2023-07-31T07:36:00;96989.00;;;20.45;54.72
82249;BME280;71851;49.092;18.918;2023-07-31T07:39:01;96998.50;;;20.62;53.98
82249;BME280;71851;49.092;18.918;2023-07-31T07:42:01;96994.47;;;20.81;53.01
82249;BME280;71851;49.092;18.918;2023-07-31T07:45:02;97003.91;;;20.94;52.56
82249;BME280;71851;49.092;18.918;2023-07-31T07:48:03;97000.44;;;21.20;53.06
82249;BME280;71851;49.092;18.918;2023-07-31T07:51:04;96999.81;;;21.45;52.23
82249;BME280;71851;49.092;18.918;2023-07-31T07:54:04;96995.97;;;21.67;50.84
82249;BME280;71851;49.092;18.918;2023-07-31T07:57:04;96994.50;;;22.38;49.14
82249;BME280;71851;49.092;18.918;2023-07-31T08:00:05;96991.22;;;23.18;47.74
82249;BME280;71851;49.092;18.918;2023-07-31T08:03:14;96981.78;;;23.86;45.60
82249;BME280;71851;49.092;18.918;2023-07-31T08:06:14;96988.88;;;24.36;45.83
82249;BME280;71851;49.092;18.918;2023-07-31T08:09:15;96988.63;;;24.86;42.42
82249;BME280;71851;49.092;18.918;2023-07-31T08:12:15;96976.34;;;27.72;38.30
82249;BME280;71851;49.092;18.918;2023-07-31T08:15:16;96974.72;;;30.69;31.84
82249;BME280;71851;49.092;18.918;2023-07-31T08:18:16;96984.97;;;31.24;30.82
82249;BME280;71851;49.092;18.918;2023-07-31T08:21:17;96987.03;;;31.35;30.31
82249;BME280;71851;49.092;18.918;2023-07-31T08:24:18;96984.47;;;31.64;29.85
82249;BME280;71851;49.092;18.918;2023-07-31T08:27:18;96987.22;;;32.11;29.42
82249;BME280;71851;49.092;18.918;2023-07-31T08:30:19;96988.88;;;30.10;31.49
82249;BME280;71851;49.092;18.918;2023-07-31T08:33:20;96981.69;;;30.53;30.99
82249;BME280;71851;49.092;18.918;2023-07-31T08:36:20;96987.75;;;30.59;34.09
82249;BME280;71851;49.092;18.918;2023-07-31T08:39:20;96981.47;;;31.32;29.60
82249;BME280;71851;49.092;18.918;2023-07-31T08:42:21;96977.09;;;31.73;29.16
82249;BME280;71851;49.092;18.918;2023-07-31T08:45:22;96979.97;;;33.11;26.93
82249;BME280;71851;49.092;18.918;2023-07-31T08:48:23;96973.53;;;33.81;25.43
82249;BME280;71851;49.092;18.918;2023-07-31T08:51:24;96974.47;;;35.45;23.92
82249;BME280;71851;49.092;18.918;2023-07-31T08:54:24;96966.34;;;36.08;23.20
82249;BME280;71851;49.092;18.918;2023-07-31T08:57:30;96961.94;;;36.50;22.20
82249;BME280;71851;49.092;18.918;2023-07-31T09:00:32;96963.59;;;37.24;21.17
82249;BME280;71851;49.092;18.918;2023-07-31T09:03:34;96968.63;;;37.79;20.27
82249;BME280;71851;49.092;18.918;2023-07-31T09:06:36;96957.53;;;38.17;19.55
82249;BME280;71851;49.092;18.918;2023-07-31T09:09:37;96948.16;;;38.97;19.05
82249;BME280;71851;49.092;18.918;2023-07-31T09:12:38;96954.50;;;39.01;18.09
82249;BME280;71851;49.092;18.918;2023-07-31T09:15:40;96964.22;;;39.54;17.95
82249;BME280;71851;49.092;18.918;2023-07-31T09:18:54;96952.81;;;38.41;19.33
82249;BME280;71851;49.092;18.918;2023-07-31T09:21:56;96952.72;;;38.60;19.12
82249;BME280;71851;49.092;18.918;2023-07-31T09:24:57;96955.84;;;39.44;19.15
82249;BME280;71851;49.092;18.918;2023-07-31T09:28:06;96955.22;;;38.68;18.54
82249;BME280;71851;49.092;18.918;2023-07-31T09:31:07;96954.56;;;38.78;18.38
82249;BME280;71851;49.092;18.918;2023-07-31T09:34:07;96938.34;;;38.17;19.29
82249;BME280;71851;49.092;18.918;2023-07-31T09:37:08;96943.63;;;39.41;18.63
82249;BME280;71851;49.092;18.918;2023-07-31T09:40:08;96938.81;;;39.64;17.84
82249;BME280;71851;49.092;18.918;2023-07-31T09:43:11;96927.50;;;40.71;17.90
82249;BME280;71851;49.092;18.918;2023-07-31T09:46:14;96933.28;;;41.20;15.96
82249;BME280;71851;49.092;18.918;2023-07-31T09:49:15;96934.44;;;41.16;16.25
82249;BME280;71851;49.092;18.918;2023-07-31T09:52:15;96922.63;;;40.43;18.13
82249;BME280;71851;49.092;18.918;2023-07-31T09:55:16;96927.06;;;39.67;16.89
82249;BME280;71851;49.092;18.918;2023-07-31T09:58:16;96920.56;;;40.91;16.33
82249;BME280;71851;49.092;18.918;2023-07-31T10:01:16;96922.50;;;40.87;16.06
82249;BME280;71851;49.092;18.918;2023-07-31T10:04:17;96922.41;;;39.75;16.92
82249;BME280;71851;49.092;18.918;2023-07-31T10:07:23;96922.28;;;40.48;17.18
82249;BME280;71851;49.092;18.918;2023-07-31T10:10:25;96914.13;;;40.69;16.13
82249;BME280;71851;49.092;18.918;2023-07-31T10:13:28;96918.75;;;41.23;16.30
82249;BME280;71851;49.092;18.918;2023-07-31T10:16:29;96908.09;;;41.15;16.68
82249;BME280;71851;49.092;18.918;2023-07-31T10:19:31;96894.28;;;41.04;15.66
82249;BME280;71851;49.092;18.918;2023-07-31T10:22:32;96893.25;;;40.58;15.95
82249;BME280;71851;49.092;18.918;2023-07-31T10:25:34;96900.38;;;40.15;16.91
82249;BME280;71851;49.092;18.918;2023-07-31T10:28:36;96890.84;;;41.35;16.64
82249;BME280;71851;49.092;18.918;2023-07-31T10:31:37;96891.97;;;41.20;15.16
82249;BME280;71851;49.092;18.918;2023-07-31T10:34:39;96898.22;;;41.14;16.25
82249;BME280;71851;49.092;18.918;2023-07-31T10:37:42;96884.97;;;41.40;16.16
82249;BME280;71851;49.092;18.918;2023-07-31T10:40:43;96879.06;;;41.42;16.19
82249;BME280;71851;49.092;18.918;2023-07-31T10:43:47;96882.91;;;41.13;16.03
82249;BME280;71851;49.092;18.918;2023-07-31T10:46:48;96887.00;;;40.71;15.68
82249;BME280;71851;49.092;18.918;2023-07-31T10:49:48;96884.47;;;41.17;14.86
82249;BME280;71851;49.092;18.918;2023-07-31T10:52:50;96885.59;;;40.99;15.30
82249;BME280;71851;49.092;18.918;2023-07-31T10:55:51;96882.50;;;39.15;16.60
82249;BME280;71851;49.092;18.918;2023-07-31T10:59:00;96883.41;;;40.03;15.03
82249;BME280;71851;49.092;18.918;2023-07-31T11:02:00;96877.41;;;40.41;15.15
82249;BME280;71851;49.092;18.918;2023-07-31T11:05:07;96874.41;;;40.06;15.55
82249;BME280;71851;49.092;18.918;2023-07-31T11:08:19;96869.53;;;40.39;16.22
82249;BME280;71851;49.092;18.918;2023-07-31T11:11:20;96868.75;;;39.91;16.15
82249;BME280;71851;49.092;18.918;2023-07-31T11:14:21;96862.84;;;39.89;15.34
82249;BME280;71851;49.092;18.918;2023-07-31T11:17:25;96864.94;;;39.59;15.99
82249;BME280;71851;49.092;18.918;2023-07-31T11:20:26;96854.97;;;39.44;16.20
82249;BME280;71851;49.092;18.918;2023-07-31T11:23:27;96858.69;;;38.92;17.71
82249;BME280;71851;49.092;18.918;2023-07-31T11:26:27;96841.91;;;35.95;20.50
82249;BME280;71851;49.092;18.918;2023-07-31T11:29:28;96846.81;;;35.89;20.72
82249;BME280;71851;49.092;18.918;2023-07-31T11:32:29;96854.44;;;36.65;19.78
82249;BME280;71851;49.092;18.918;2023-07-31T11:35:34;96844.50;;;36.76;20.00
82249;BME280;71851;49.092;18.918;2023-07-31T11:38:34;96847.91;;;37.30;19.70
82249;BME280;71851;49.092;18.918;2023-07-31T11:41:35;96840.47;;;37.50;18.26
82249;BME280;71851;49.092;18.918;2023-07-31T11:44:40;96844.22;;;38.10;18.12
82249;BME280;71851;49.092;18.918;2023-07-31T11:47:41;96845.38;;;38.35;18.64
82249;BME280;71851;49.092;18.918;2023-07-31T11:50:41;96839.31;;;37.51;16.79
82249;BME280;71851;49.092;18.918;2023-07-31T11:53:51;96844.91;;;36.40;18.10
82249;BME280;71851;49.092;18.918;2023-07-31T11:56:52;96859.59;;;34.83;19.10
82249;BME280;71851;49.092;18.918;2023-07-31T11:59:53;96852.31;;;35.15;19.71
82249;BME280;71851;49.092;18.918;2023-07-31T12:02:53;96856.88;;;35.11;20.44
82249;BME280;71851;49.092;18.918;2023-07-31T12:05:54;96847.66;;;36.24;18.27
82249;BME280;71851;49.092;18.918;2023-07-31T12:09:03;96840.75;;;36.65;18.42
82249;BME280;71851;49.092;18.918;2023-07-31T12:12:08;96844.63;;;36.45;19.09
82249;BME280;71851;49.092;18.918;2023-07-31T12:15:15;96847.38;;;36.64;18.89
82249;BME280;71851;49.092;18.918;2023-07-31T12:18:19;96833.91;;;36.21;18.89
82249;BME280;71851;49.092;18.918;2023-07-31T12:21:21;96835.19;;;36.42;18.42
82249;BME280;71851;49.092;18.918;2023-07-31T12:24:22;96833.78;;;36.33;18.46
82249;BME280;71851;49.092;18.918;2023-07-31T12:27:22;96827.88;;;35.96;19.07
82249;BME280;71851;49.092;18.918;2023-07-31T12:30:33;96826.03;;;35.84;18.99
82249;BME280;71851;49.092;18.918;2023-07-31T12:33:36;96831.94;;;35.71;18.50
82249;BME280;71851;49.092;18.918;2023-07-31T12:36:38;96830.56;;;35.61;19.35
82249;BME280;71851;49.092;18.918;2023-07-31T12:39:39;96818.63;;;34.95;19.42
82249;BME280;71851;49.092;18.918;2023-07-31T12:42:41;96824.38;;;35.05;19.60
82249;BME280;71851;49.092;18.918;2023-07-31T12:45:41;96821.09;;;34.72;19.30
82249;BME280;71851;49.092;18.918;2023-07-31T12:48:42;96828.25;;;34.37;20.59
82249;BME280;71851;49.092;18.918;2023-07-31T12:51:42;96816.41;;;34.57;19.74
82249;BME280;71851;49.092;18.918;2023-07-31T12:54:43;96811.19;;;34.52;19.94
82249;BME280;71851;49.092;18.918;2023-07-31T12:57:43;96810.75;;;34.93;20.13
82249;BME280;71851;49.092;18.918;2023-07-31T13:00:44;96808.44;;;33.88;20.88
82249;BME280;71851;49.092;18.918;2023-07-31T13:03:44;96797.81;;;32.82;22.18
82249;BME280;71851;49.092;18.918;2023-07-31T13:06:45;96798.75;;;32.65;23.17
82249;BME280;71851;49.092;18.918;2023-07-31T13:09:45;96792.22;;;32.45;23.27
82249;BME280;71851;49.092;18.918;2023-07-31T13:12:46;96783.59;;;32.64;23.36
82249;BME280;71851;49.092;18.918;2023-07-31T13:15:46;96777.91;;;33.34;22.65
82249;BME280;71851;49.092;18.918;2023-07-31T13:18:47;96782.31;;;33.75;21.89
82249;BME280;71851;49.092;18.918;2023-07-31T13:21:47;96778.47;;;32.95;22.96
82249;BME280;71851;49.092;18.918;2023-07-31T13:24:47;96772.00;;;32.34;23.95
82249;BME280;71851;49.092;18.918;2023-07-31T13:27:48;96772.69;;;32.11;23.37
82249;BME280;71851;49.092;18.918;2023-07-31T13:30:48;96790.50;;;31.24;24.23
82249;BME280;71851;49.092;18.918;2023-07-31T13:33:49;96775.88;;;31.54;23.22
82249;BME280;71851;49.092;18.918;2023-07-31T13:36:49;96778.56;;;32.13;24.96
82249;BME280;71851;49.092;18.918;2023-07-31T13:39:49;96763.13;;;32.46;24.14
82249;BME280;71851;49.092;18.918;2023-07-31T13:42:50;96767.03;;;32.36;22.84
82249;BME280;71851;49.092;18.918;2023-07-31T13:45:50;96762.34;;;32.04;23.57
82249;BME280;71851;49.092;18.918;2023-07-31T13:48:51;96769.06;;;31.69;24.33
82249;BME280;71851;49.092;18.918;2023-07-31T13:51:55;96760.66;;;31.24;24.74
82249;BME280;71851;49.092;18.918;2023-07-31T13:54:55;96761.41;;;30.87;25.16
82249;BME280;71851;49.092;18.918;2023-07-31T13:57:56;96762.25;;;30.53;25.48
82249;BME280;71851;49.092;18.918;2023-07-31T14:00:56;96753.66;;;30.00;26.36
82249;BME280;71851;49.092;18.918;2023-07-31T14:03:57;96752.69;;;30.21;25.72
82249;BME280;71851;49.092;18.918;2023-07-31T14:06:57;96744.44;;;30.35;25.52
82249;BME280;71851;49.092;18.918;2023-07-31T14:09:57;96745.56;;;30.34;26.10
82249;BME280;71851;49.092;18.918;2023-07-31T14:12:58;96749.38;;;30.33;25.73
82249;BME280;71851;49.092;18.918;2023-07-31T14:15:58;96742.63;;;30.73;26.06
82249;BME280;71851;49.092;18.918;2023-07-31T14:18:59;96740.06;;;30.77;25.64
82249;BME280;71851;49.092;18.918;2023-07-31T14:21:59;96738.28;;;30.81;25.63
82249;BME280;71851;49.092;18.918;2023-07-31T14:25:00;96721.97;;;30.52;25.14
82249;BME280;71851;49.092;18.918;2023-07-31T14:28:01;96724.06;;;30.38;25.74
82249;BME280;71851;49.092;18.918;2023-07-31T14:31:01;96718.31;;;30.39;25.72
82249;BME280;71851;49.092;18.918;2023-07-31T14:34:02;96723.25;;;30.46;25.63
82249;BME280;71851;49.092;18.918;2023-07-31T14:37:02;96726.13;;;30.32;26.87
82249;BME280;71851;49.092;18.918;2023-07-31T14:40:03;96725.78;;;30.25;26.44
82249;BME280;71851;49.092;18.918;2023-07-31T14:43:04;96734.19;;;29.81;27.24
82249;BME280;71851;49.092;18.918;2023-07-31T14:46:05;96718.53;;;29.61;27.46
82249;BME280;71851;49.092;18.918;2023-07-31T14:49:05;96711.47;;;29.82;27.38
82249;BME280;71851;49.092;18.918;2023-07-31T14:52:06;96712.84;;;29.71;26.50
82249;BME280;71851;49.092;18.918;2023-07-31T14:55:07;96708.22;;;29.63;27.23
82249;BME280;71851;49.092;18.918;2023-07-31T14:58:09;96706.78;;;29.09;27.98
82249;BME280;71851;49.092;18.918;2023-07-31T15:01:11;96716.44;;;29.01;28.04
82249;BME280;71851;49.092;18.918;2023-07-31T15:04:11;96706.19;;;28.81;28.08
82249;BME280;71851;49.092;18.918;2023-07-31T15:07:12;96707.28;;;28.80;28.00
82249;BME280;71851;49.092;18.918;2023-07-31T15:10:13;96706.22;;;28.90;27.82
82249;BME280;71851;49.092;18.918;2023-07-31T15:13:14;96715.59;;;28.84;28.32
82249;BME280;71851;49.092;18.918;2023-07-31T15:16:14;96707.53;;;28.48;28.05
82249;BME280;71851;49.092;18.918;2023-07-31T15:19:15;96701.88;;;28.49;29.30
82249;BME280;71851;49.092;18.918;2023-07-31T15:22:15;96704.00;;;28.39;29.64
82249;BME280;71851;49.092;18.918;2023-07-31T15:25:16;96699.91;;;28.19;28.65
82249;BME280;71851;49.092;18.918;2023-07-31T15:28:18;96702.22;;;28.12;29.40
82249;BME280;71851;49.092;18.918;2023-07-31T15:31:18;96696.34;;;28.32;28.85
82249;BME280;71851;49.092;18.918;2023-07-31T15:34:18;96695.59;;;28.18;29.74
82249;BME280;71851;49.092;18.918;2023-07-31T15:37:19;96694.38;;;28.02;29.33
82249;BME280;71851;49.092;18.918;2023-07-31T15:40:20;96695.41;;;27.93;29.83
82249;BME280;71851;49.092;18.918;2023-07-31T15:43:21;96686.63;;;27.87;30.49
82249;BME280;71851;49.092;18.918;2023-07-31T15:46:21;96688.34;;;27.83;31.12
82249;BME280;71851;49.092;18.918;2023-07-31T15:49:22;96684.34;;;27.81;30.33
82249;BME280;71851;49.092;18.918;2023-07-31T15:52:22;96680.97;;;27.75;31.08
82249;BME280;71851;49.092;18.918;2023-07-31T15:55:22;96687.72;;;27.86;30.76